sensor_id;sensor_type;location;lat;lon;timestamp;P1;durP1;ratioP1;P2;durP2;ratioP2
9773;SDS011;4926;42.670;23.316;2022-11-11T00:01:06;31.90;;;20.23;;
9773;SDS011;4926;42.670;23.316;2022-11-11T00:03:35;29.10;;;20.23;;
9773;SDS011;4926;42.670;23.316;2022-11-11T00:06:07;32.60;;;21.27;;
9773;SDS011;4926;42.670;23.316;2022-11-11T00:08:35;29.65;;;20.83;;
9773;SDS011;4926;42.670;23.316;2022-11-11T00:11:06;29.02;;;21.33;;
9773;SDS011;4926;42.670;23.316;2022-11-11T00:13:34;31.15;;;20.50;;
9773;SDS011;4926;42.670;23.316;2022-11-11T00:16:04;33.53;;;22.77;;
9773;SDS011;4926;42.670;23.316;2022-11-11T00:18:31;36.17;;;23.80;;
9773;SDS011;4926;42.670;23.316;2022-11-11T00:21:22;34.55;;;22.83;;
9773;SDS011;4926;42.670;23.316;2022-11-11T00:24:12;32.75;;;23.13;;
9773;SDS011;4926;42.670;23.316;2022-11-11T00:27:04;38.85;;;25.17;;
9773;SDS011;4926;42.670;23.316;2022-11-11T00:29:30;33.60;;;23.77;;
9773;SDS011;4926;42.670;23.316;2022-11-11T00:31:57;35.22;;;24.73;;
9773;SDS011;4926;42.670;23.316;2022-11-11T00:34:42;37.65;;;23.33;;
9773;SDS011;4926;42.670;23.316;2022-11-11T00:37:30;35.28;;;23.75;;
9773;SDS011;4926;42.670;23.316;2022-11-11T00:39:56;35.67;;;23.83;;
9773;SDS011;4926;42.670;23.316;2022-11-11T00:42:23;32.20;;;21.35;;
9773;SDS011;4926;42.670;23.316;2022-11-11T00:44:51;35.05;;;22.80;;
9773;SDS011;4926;42.670;23.316;2022-11-11T00:47:21;31.73;;;22.38;;
9773;SDS011;4926;42.670;23.316;2022-11-11T00:50:06;32.58;;;22.30;;
9773;SDS011;4926;42.670;23.316;2022-11-11T00:52:55;30.73;;;22.42;;
9773;SDS011;4926;42.670;23.316;2022-11-11T00:55:22;33.88;;;22.65;;
9773;SDS011;4926;42.670;23.316;2022-11-11T00:57:48;32.60;;;21.30;;
9773;SDS011;4926;42.670;23.316;2022-11-11T01:00:15;34.08;;;22.92;;
9773;SDS011;4926;42.670;23.316;2022-11-11T01:02:44;34.80;;;21.73;;
9773;SDS011;4926;42.670;23.316;2022-11-11T01:05:11;29.42;;;20.75;;
9773;SDS011;4926;42.670;23.316;2022-11-11T01:07:37;30.85;;;22.40;;
9773;SDS011;4926;42.670;23.316;2022-11-11T01:10:06;29.15;;;21.67;;
9773;SDS011;4926;42.670;23.316;2022-11-11T01:12:33;31.55;;;21.80;;
9773;SDS011;4926;42.670;23.316;2022-11-11T01:15:00;30.67;;;21.08;;
9773;SDS011;4926;42.670;23.316;2022-11-11T01:17:28;30.48;;;21.25;;
9773;SDS011;4926;42.670;23.316;2022-11-11T01:19:55;32.30;;;21.23;;
9773;SDS011;4926;42.670;23.316;2022-11-11T01:22:24;33.85;;;22.58;;
9773;SDS011;4926;42.670;23.316;2022-11-11T01:24:51;35.22;;;22.23;;
9773;SDS011;4926;42.670;23.316;2022-11-11T01:27:19;34.92;;;21.27;;
9773;SDS011;4926;42.670;23.316;2022-11-11T01:29:45;31.85;;;22.27;;
9773;SDS011;4926;42.670;23.316;2022-11-11T01:32:12;33.30;;;22.25;;
9773;SDS011;4926;42.670;23.316;2022-11-11T01:34:42;34.88;;;22.77;;
9773;SDS011;4926;42.670;23.316;2022-11-11T01:37:09;36.63;;;23.00;;
9773;SDS011;4926;42.670;23.316;2022-11-11T01:39:36;32.60;;;22.67;;
9773;SDS011;4926;42.670;23.316;2022-11-11T01:42:04;36.28;;;23.80;;
9773;SDS011;4926;42.670;23.316;2022-11-11T01:44:43;37.00;;;24.38;;
9773;SDS011;4926;42.670;23.316;2022-11-11T01:47:12;32.50;;;23.35;;
9773;SDS011;4926;42.670;23.316;2022-11-11T01:49:43;38.53;;;23.40;;
9773;SDS011;4926;42.670;23.316;2022-11-11T01:52:21;37.60;;;22.92;;
9773;SDS011;4926;42.670;23.316;2022-11-11T01:54:52;31.55;;;22.55;;
9773;SDS011;4926;42.670;23.316;2022-11-11T01:57:23;34.63;;;23.45;;
9773;SDS011;4926;42.670;23.316;2022-11-11T01:59:57;33.70;;;23.13;;
9773;SDS011;4926;42.670;23.316;2022-11-11T02:02:29;34.50;;;23.95;;
9773;SDS011;4926;42.670;23.316;2022-11-11T02:05:03;33.17;;;23.65;;
9773;SDS011;4926;42.670;23.316;2022-11-11T02:07:49;34.35;;;24.13;;
9773;SDS011;4926;42.670;23.316;2022-11-11T02:10:18;36.03;;;24.73;;
9773;SDS011;4926;42.670;23.316;2022-11-11T02:12:48;38.42;;;25.27;;
9773;SDS011;4926;42.670;23.316;2022-11-11T02:15:33;37.17;;;25.20;;
9773;SDS011;4926;42.670;23.316;2022-11-11T02:18:01;38.58;;;25.73;;
9773;SDS011;4926;42.670;23.316;2022-11-11T02:20:29;41.28;;;27.15;;
9773;SDS011;4926;42.670;23.316;2022-11-11T02:23:02;39.97;;;25.20;;
9773;SDS011;4926;42.670;23.316;2022-11-11T02:25:36;36.50;;;26.02;;
9773;SDS011;4926;42.670;23.316;2022-11-11T02:28:06;39.63;;;26.10;;
9773;SDS011;4926;42.670;23.316;2022-11-11T02:30:36;39.10;;;26.20;;
9773;SDS011;4926;42.670;23.316;2022-11-11T02:33:02;40.67;;;26.38;;
9773;SDS011;4926;42.670;23.316;2022-11-11T02:35:30;38.63;;;25.40;;
9773;SDS011;4926;42.670;23.316;2022-11-11T02:38:05;37.10;;;26.40;;
9773;SDS011;4926;42.670;23.316;2022-11-11T02:40:34;39.38;;;25.55;;
9773;SDS011;4926;42.670;23.316;2022-11-11T02:43:24;42.95;;;27.05;;
9773;SDS011;4926;42.670;23.316;2022-11-11T02:45:51;36.90;;;25.42;;
9773;SDS011;4926;42.670;23.316;2022-11-11T02:48:17;36.58;;;25.08;;
9773;SDS011;4926;42.670;23.316;2022-11-11T02:50:48;36.85;;;25.50;;
9773;SDS011;4926;42.670;23.316;2022-11-11T02:53:15;40.17;;;26.40;;
9773;SDS011;4926;42.670;23.316;2022-11-11T02:55:43;32.55;;;23.88;;
9773;SDS011;4926;42.670;23.316;2022-11-11T02:58:10;35.78;;;25.15;;
9773;SDS011;4926;42.670;23.316;2022-11-11T03:00:38;34.13;;;24.20;;
9773;SDS011;4926;42.670;23.316;2022-11-11T03:03:05;34.88;;;23.88;;
9773;SDS011;4926;42.670;23.316;2022-11-11T03:05:32;31.15;;;23.40;;
9773;SDS011;4926;42.670;23.316;2022-11-11T03:07:59;34.92;;;24.00;;
9773;SDS011;4926;42.670;23.316;2022-11-11T03:10:28;33.97;;;23.35;;
9773;SDS011;4926;42.670;23.316;2022-11-11T03:12:59;36.10;;;24.52;;
9773;SDS011;4926;42.670;23.316;2022-11-11T03:15:25;33.10;;;23.40;;
9773;SDS011;4926;42.670;23.316;2022-11-11T03:17:52;35.75;;;22.85;;
9773;SDS011;4926;42.670;23.316;2022-11-11T03:20:18;34.25;;;23.75;;
9773;SDS011;4926;42.670;23.316;2022-11-11T03:23:03;36.58;;;24.38;;
9773;SDS011;4926;42.670;23.316;2022-11-11T03:25:36;39.13;;;25.75;;
9773;SDS011;4926;42.670;23.316;2022-11-11T03:28:04;34.97;;;25.02;;
9773;SDS011;4926;42.670;23.316;2022-11-11T03:30:34;38.53;;;25.77;;
9773;SDS011;4926;42.670;23.316;2022-11-11T03:33:02;38.28;;;26.65;;
9773;SDS011;4926;42.670;23.316;2022-11-11T03:35:32;37.08;;;26.27;;
9773;SDS011;4926;42.670;23.316;2022-11-11T03:38:02;37.28;;;26.50;;
9773;SDS011;4926;42.670;23.316;2022-11-11T03:40:49;34.72;;;24.65;;
9773;SDS011;4926;42.670;23.316;2022-11-11T03:43:19;36.05;;;24.33;;
9773;SDS011;4926;42.670;23.316;2022-11-11T03:45:47;34.83;;;24.25;;
9773;SDS011;4926;42.670;23.316;2022-11-11T03:48:14;35.38;;;23.85;;
9773;SDS011;4926;42.670;23.316;2022-11-11T03:50:41;34.35;;;23.52;;
9773;SDS011;4926;42.670;23.316;2022-11-11T03:53:08;35.97;;;26.55;;
9773;SDS011;4926;42.670;23.316;2022-11-11T03:55:34;37.58;;;26.17;;
9773;SDS011;4926;42.670;23.316;2022-11-11T03:58:01;39.00;;;26.77;;
9773;SDS011;4926;42.670;23.316;2022-11-11T04:00:31;36.78;;;25.15;;
9773;SDS011;4926;42.670;23.316;2022-11-11T04:03:01;37.33;;;24.98;;
9773;SDS011;4926;42.670;23.316;2022-11-11T04:05:44;36.35;;;26.73;;
9773;SDS011;4926;42.670;23.316;2022-11-11T04:08:31;40.80;;;27.52;;
9773;SDS011;4926;42.670;23.316;2022-11-11T04:11:16;37.92;;;26.58;;
9773;SDS011;4926;42.670;23.316;2022-11-11T04:13:49;37.90;;;25.90;;
9773;SDS011;4926;42.670;23.316;2022-11-11T04:16:37;40.80;;;27.58;;
9773;SDS011;4926;42.670;23.316;2022-11-11T04:19:06;39.15;;;26.80;;
9773;SDS011;4926;42.670;23.316;2022-11-11T04:21:51;38.60;;;27.83;;
9773;SDS011;4926;42.670;23.316;2022-11-11T04:24:19;38.33;;;27.02;;
9773;SDS011;4926;42.670;23.316;2022-11-11T04:27:05;42.30;;;27.98;;
9773;SDS011;4926;42.670;23.316;2022-11-11T04:29:33;37.53;;;25.80;;
9773;SDS011;4926;42.670;23.316;2022-11-11T04:32:01;36.50;;;25.20;;
9773;SDS011;4926;42.670;23.316;2022-11-11T04:34:47;38.33;;;25.38;;
9773;SDS011;4926;42.670;23.316;2022-11-11T04:37:15;35.13;;;25.38;;
9773;SDS011;4926;42.670;23.316;2022-11-11T04:39:43;42.33;;;25.75;;
9773;SDS011;4926;42.670;23.316;2022-11-11T04:42:27;32.67;;;23.45;;
9773;SDS011;4926;42.670;23.316;2022-11-11T04:44:56;38.20;;;25.75;;
9773;SDS011;4926;42.670;23.316;2022-11-11T04:47:52;36.28;;;24.27;;
9773;SDS011;4926;42.670;23.316;2022-11-11T04:50:20;34.40;;;25.33;;
9773;SDS011;4926;42.670;23.316;2022-11-11T04:52:47;37.80;;;25.80;;
9773;SDS011;4926;42.670;23.316;2022-11-11T04:55:14;33.60;;;23.70;;
9773;SDS011;4926;42.670;23.316;2022-11-11T04:57:58;36.10;;;26.13;;
9773;SDS011;4926;42.670;23.316;2022-11-11T05:00:25;33.78;;;23.30;;
9773;SDS011;4926;42.670;23.316;2022-11-11T05:02:54;33.78;;;23.70;;
9773;SDS011;4926;42.670;23.316;2022-11-11T05:05:38;32.45;;;24.10;;
9773;SDS011;4926;42.670;23.316;2022-11-11T05:08:22;31.63;;;22.70;;
9773;SDS011;4926;42.670;23.316;2022-11-11T05:11:06;31.40;;;22.38;;
9773;SDS011;4926;42.670;23.316;2022-11-11T05:13:33;29.48;;;22.17;;
9773;SDS011;4926;42.670;23.316;2022-11-11T05:16:20;31.88;;;22.95;;
9773;SDS011;4926;42.670;23.316;2022-11-11T05:19:10;28.65;;;20.42;;
9773;SDS011;4926;42.670;23.316;2022-11-11T05:21:56;30.42;;;21.48;;
9773;SDS011;4926;42.670;23.316;2022-11-11T05:24:28;25.98;;;20.27;;
9773;SDS011;4926;42.670;23.316;2022-11-11T05:27:12;28.75;;;20.35;;
9773;SDS011;4926;42.670;23.316;2022-11-11T05:29:39;26.73;;;19.95;;
9773;SDS011;4926;42.670;23.316;2022-11-11T05:32:06;28.27;;;19.92;;
9773;SDS011;4926;42.670;23.316;2022-11-11T05:34:35;26.63;;;18.92;;
9773;SDS011;4926;42.670;23.316;2022-11-11T05:37:01;25.23;;;19.55;;
9773;SDS011;4926;42.670;23.316;2022-11-11T05:39:28;26.95;;;19.35;;
9773;SDS011;4926;42.670;23.316;2022-11-11T05:41:55;26.67;;;19.30;;
9773;SDS011;4926;42.670;23.316;2022-11-11T05:44:21;26.67;;;19.20;;
9773;SDS011;4926;42.670;23.316;2022-11-11T05:46:48;28.77;;;19.48;;
9773;SDS011;4926;42.670;23.316;2022-11-11T05:49:15;28.17;;;19.77;;
9773;SDS011;4926;42.670;23.316;2022-11-11T05:51:43;28.73;;;20.40;;
9773;SDS011;4926;42.670;23.316;2022-11-11T05:54:11;28.33;;;20.25;;
9773;SDS011;4926;42.670;23.316;2022-11-11T05:56:38;27.17;;;19.13;;
9773;SDS011;4926;42.670;23.316;2022-11-11T05:59:05;29.20;;;20.20;;
9773;SDS011;4926;42.670;23.316;2022-11-11T06:01:32;28.52;;;19.90;;
9773;SDS011;4926;42.670;23.316;2022-11-11T06:04:00;29.02;;;20.70;;
9773;SDS011;4926;42.670;23.316;2022-11-11T06:06:27;29.77;;;21.02;;
9773;SDS011;4926;42.670;23.316;2022-11-11T06:08:55;29.83;;;21.90;;
9773;SDS011;4926;42.670;23.316;2022-11-11T06:11:24;29.25;;;21.55;;
9773;SDS011;4926;42.670;23.316;2022-11-11T06:13:52;33.50;;;23.27;;
9773;SDS011;4926;42.670;23.316;2022-11-11T06:16:21;30.23;;;22.35;;
9773;SDS011;4926;42.670;23.316;2022-11-11T06:18:49;31.27;;;21.88;;
9773;SDS011;4926;42.670;23.316;2022-11-11T06:21:16;32.50;;;22.80;;
9773;SDS011;4926;42.670;23.316;2022-11-11T06:23:44;30.20;;;21.05;;
9773;SDS011;4926;42.670;23.316;2022-11-11T06:26:15;33.80;;;22.52;;
9773;SDS011;4926;42.670;23.316;2022-11-11T06:28:44;32.30;;;22.45;;
9773;SDS011;4926;42.670;23.316;2022-11-11T06:31:13;29.35;;;21.15;;
9773;SDS011;4926;42.670;23.316;2022-11-11T06:33:41;31.23;;;20.92;;
9773;SDS011;4926;42.670;23.316;2022-11-11T06:36:11;30.08;;;20.40;;
9773;SDS011;4926;42.670;23.316;2022-11-11T06:38:39;31.20;;;21.42;;
9773;SDS011;4926;42.670;23.316;2022-11-11T06:41:07;32.75;;;22.50;;
9773;SDS011;4926;42.670;23.316;2022-11-11T06:43:38;31.73;;;22.90;;
9773;SDS011;4926;42.670;23.316;2022-11-11T06:46:05;31.05;;;21.88;;
9773;SDS011;4926;42.670;23.316;2022-11-11T06:48:32;33.97;;;22.10;;
9773;SDS011;4926;42.670;23.316;2022-11-11T06:51:02;31.95;;;21.23;;
9773;SDS011;4926;42.670;23.316;2022-11-11T06:53:30;29.25;;;20.83;;
9773;SDS011;4926;42.670;23.316;2022-11-11T06:55:57;29.73;;;21.77;;
9773;SDS011;4926;42.670;23.316;2022-11-11T06:58:24;31.98;;;22.00;;
9773;SDS011;4926;42.670;23.316;2022-11-11T07:00:53;30.55;;;21.83;;
9773;SDS011;4926;42.670;23.316;2022-11-11T07:03:34;31.15;;;21.38;;
9773;SDS011;4926;42.670;23.316;2022-11-11T07:06:01;32.92;;;21.58;;
9773;SDS011;4926;42.670;23.316;2022-11-11T07:08:31;29.52;;;21.67;;
9773;SDS011;4926;42.670;23.316;2022-11-11T07:10:59;31.27;;;20.88;;
9773;SDS011;4926;42.670;23.316;2022-11-11T07:13:29;25.90;;;18.83;;
9773;SDS011;4926;42.670;23.316;2022-11-11T07:15:59;26.20;;;18.50;;
9773;SDS011;4926;42.670;23.316;2022-11-11T07:18:26;26.05;;;18.80;;
9773;SDS011;4926;42.670;23.316;2022-11-11T07:20:55;26.20;;;19.00;;
9773;SDS011;4926;42.670;23.316;2022-11-11T07:23:30;29.13;;;18.83;;
9773;SDS011;4926;42.670;23.316;2022-11-11T07:25:59;28.13;;;18.48;;
9773;SDS011;4926;42.670;23.316;2022-11-11T07:28:25;25.77;;;17.75;;
9773;SDS011;4926;42.670;23.316;2022-11-11T07:30:52;28.40;;;18.73;;
9773;SDS011;4926;42.670;23.316;2022-11-11T07:33:20;26.02;;;19.30;;
9773;SDS011;4926;42.670;23.316;2022-11-11T07:35:47;28.23;;;18.73;;
9773;SDS011;4926;42.670;23.316;2022-11-11T07:38:14;26.92;;;17.27;;
9773;SDS011;4926;42.670;23.316;2022-11-11T07:40:41;28.08;;;18.50;;
9773;SDS011;4926;42.670;23.316;2022-11-11T07:43:08;27.05;;;19.08;;
9773;SDS011;4926;42.670;23.316;2022-11-11T07:45:35;26.67;;;18.48;;
9773;SDS011;4926;42.670;23.316;2022-11-11T07:48:02;28.48;;;18.63;;
9773;SDS011;4926;42.670;23.316;2022-11-11T07:50:30;26.58;;;18.73;;
9773;SDS011;4926;42.670;23.316;2022-11-11T07:52:56;25.45;;;17.23;;
9773;SDS011;4926;42.670;23.316;2022-11-11T07:55:23;30.25;;;18.98;;
9773;SDS011;4926;42.670;23.316;2022-11-11T07:57:50;26.65;;;17.30;;
9773;SDS011;4926;42.670;23.316;2022-11-11T08:00:19;27.88;;;17.60;;
9773;SDS011;4926;42.670;23.316;2022-11-11T08:02:48;24.15;;;16.30;;
9773;SDS011;4926;42.670;23.316;2022-11-11T08:05:15;25.88;;;18.33;;
9773;SDS011;4926;42.670;23.316;2022-11-11T08:07:43;22.48;;;16.85;;
9773;SDS011;4926;42.670;23.316;2022-11-11T08:10:10;23.35;;;16.38;;
9773;SDS011;4926;42.670;23.316;2022-11-11T08:12:37;23.95;;;15.65;;
9773;SDS011;4926;42.670;23.316;2022-11-11T08:15:21;22.70;;;15.90;;
9773;SDS011;4926;42.670;23.316;2022-11-11T08:17:48;24.23;;;15.88;;
9773;SDS011;4926;42.670;23.316;2022-11-11T08:20:26;22.20;;;13.68;;
9773;SDS011;4926;42.670;23.316;2022-11-11T08:22:55;24.80;;;17.17;;
9773;SDS011;4926;42.670;23.316;2022-11-11T08:25:23;23.38;;;16.85;;
9773;SDS011;4926;42.670;23.316;2022-11-11T08:27:55;26.10;;;16.98;;
9773;SDS011;4926;42.670;23.316;2022-11-11T08:30:26;29.67;;;17.80;;
9773;SDS011;4926;42.670;23.316;2022-11-11T08:32:55;26.30;;;17.45;;
9773;SDS011;4926;42.670;23.316;2022-11-11T08:35:24;23.38;;;17.30;;
9773;SDS011;4926;42.670;23.316;2022-11-11T08:37:52;24.45;;;16.73;;
9773;SDS011;4926;42.670;23.316;2022-11-11T08:40:22;23.52;;;17.35;;
9773;SDS011;4926;42.670;23.316;2022-11-11T08:42:54;23.30;;;15.45;;
9773;SDS011;4926;42.670;23.316;2022-11-11T08:45:24;21.77;;;16.08;;
9773;SDS011;4926;42.670;23.316;2022-11-11T08:47:53;20.17;;;14.63;;
9773;SDS011;4926;42.670;23.316;2022-11-11T08:50:20;20.52;;;15.65;;
9773;SDS011;4926;42.670;23.316;2022-11-11T08:52:47;21.58;;;14.52;;
9773;SDS011;4926;42.670;23.316;2022-11-11T08:55:14;17.98;;;12.93;;
9773;SDS011;4926;42.670;23.316;2022-11-11T08:57:42;19.83;;;13.85;;
9773;SDS011;4926;42.670;23.316;2022-11-11T09:00:10;20.52;;;13.45;;
9773;SDS011;4926;42.670;23.316;2022-11-11T09:02:38;18.95;;;13.93;;
9773;SDS011;4926;42.670;23.316;2022-11-11T09:05:04;20.00;;;14.48;;
9773;SDS011;4926;42.670;23.316;2022-11-11T09:07:34;16.60;;;12.60;;
9773;SDS011;4926;42.670;23.316;2022-11-11T09:10:09;17.15;;;11.63;;
9773;SDS011;4926;42.670;23.316;2022-11-11T09:12:35;14.82;;;11.75;;
9773;SDS011;4926;42.670;23.316;2022-11-11T09:15:04;18.48;;;12.90;;
9773;SDS011;4926;42.670;23.316;2022-11-11T09:17:31;19.85;;;13.23;;
9773;SDS011;4926;42.670;23.316;2022-11-11T09:19:58;16.95;;;12.02;;
9773;SDS011;4926;42.670;23.316;2022-11-11T09:22:27;18.98;;;13.23;;
9773;SDS011;4926;42.670;23.316;2022-11-11T09:24:56;17.25;;;13.38;;
9773;SDS011;4926;42.670;23.316;2022-11-11T09:27:23;18.48;;;11.55;;
9773;SDS011;4926;42.670;23.316;2022-11-11T09:29:50;14.45;;;11.25;;
9773;SDS011;4926;42.670;23.316;2022-11-11T09:32:18;15.32;;;11.52;;
9773;SDS011;4926;42.670;23.316;2022-11-11T09:34:44;15.55;;;11.13;;
9773;SDS011;4926;42.670;23.316;2022-11-11T09:37:11;14.80;;;10.65;;
9773;SDS011;4926;42.670;23.316;2022-11-11T09:39:38;20.48;;;11.95;;
9773;SDS011;4926;42.670;23.316;2022-11-11T09:42:06;16.58;;;10.35;;
9773;SDS011;4926;42.670;23.316;2022-11-11T09:44:56;14.15;;;10.60;;
9773;SDS011;4926;42.670;23.316;2022-11-11T09:47:35;15.13;;;9.73;;
9773;SDS011;4926;42.670;23.316;2022-11-11T09:50:08;11.88;;;9.82;;
9773;SDS011;4926;42.670;23.316;2022-11-11T09:52:36;13.75;;;10.27;;
9773;SDS011;4926;42.670;23.316;2022-11-11T09:55:12;16.60;;;10.75;;
9773;SDS011;4926;42.670;23.316;2022-11-11T09:57:43;13.75;;;10.75;;
9773;SDS011;4926;42.670;23.316;2022-11-11T10:00:15;15.25;;;11.18;;
9773;SDS011;4926;42.670;23.316;2022-11-11T10:02:48;13.50;;;10.32;;
9773;SDS011;4926;42.670;23.316;2022-11-11T10:05:18;13.15;;;10.63;;
9773;SDS011;4926;42.670;23.316;2022-11-11T10:07:48;15.65;;;10.88;;
9773;SDS011;4926;42.670;23.316;2022-11-11T10:10:21;15.13;;;10.45;;
9773;SDS011;4926;42.670;23.316;2022-11-11T10:12:56;13.40;;;10.13;;
9773;SDS011;4926;42.670;23.316;2022-11-11T10:15:23;11.13;;;8.75;;
9773;SDS011;4926;42.670;23.316;2022-11-11T10:18:07;11.55;;;8.70;;
9773;SDS011;4926;42.670;23.316;2022-11-11T10:20:46;10.75;;;8.27;;
9773;SDS011;4926;42.670;23.316;2022-11-11T10:23:20;12.73;;;8.88;;
9773;SDS011;4926;42.670;23.316;2022-11-11T10:25:52;12.27;;;9.75;;
9773;SDS011;4926;42.670;23.316;2022-11-11T10:28:20;14.88;;;10.10;;
9773;SDS011;4926;42.670;23.316;2022-11-11T10:30:58;10.38;;;8.43;;
9773;SDS011;4926;42.670;23.316;2022-11-11T10:33:42;12.75;;;9.52;;
9773;SDS011;4926;42.670;23.316;2022-11-11T10:36:15;11.65;;;8.55;;
9773;SDS011;4926;42.670;23.316;2022-11-11T10:38:46;10.27;;;8.38;;
9773;SDS011;4926;42.670;23.316;2022-11-11T10:41:18;10.55;;;9.02;;
9773;SDS011;4926;42.670;23.316;2022-11-11T10:43:53;12.18;;;9.05;;
9773;SDS011;4926;42.670;23.316;2022-11-11T10:46:21;11.77;;;9.55;;
9773;SDS011;4926;42.670;23.316;2022-11-11T10:48:54;11.82;;;8.90;;
9773;SDS011;4926;42.670;23.316;2022-11-11T10:51:26;12.13;;;9.35;;
9773;SDS011;4926;42.670;23.316;2022-11-11T10:53:59;12.00;;;9.55;;
9773;SDS011;4926;42.670;23.316;2022-11-11T10:56:33;13.95;;;9.13;;
9773;SDS011;4926;42.670;23.316;2022-11-11T10:59:05;10.70;;;8.80;;
9773;SDS011;4926;42.670;23.316;2022-11-11T11:01:42;9.43;;;7.78;;
9773;SDS011;4926;42.670;23.316;2022-11-11T11:04:28;26.02;;;8.52;;
9773;SDS011;4926;42.670;23.316;2022-11-11T11:07:00;10.95;;;8.65;;
9773;SDS011;4926;42.670;23.316;2022-11-11T11:09:31;10.18;;;8.07;;
9773;SDS011;4926;42.670;23.316;2022-11-11T11:12:06;11.25;;;7.93;;
9773;SDS011;4926;42.670;23.316;2022-11-11T11:14:41;11.32;;;8.70;;
9773;SDS011;4926;42.670;23.316;2022-11-11T11:17:09;9.55;;;8.07;;
9773;SDS011;4926;42.670;23.316;2022-11-11T11:19:42;10.25;;;8.32;;
9773;SDS011;4926;42.670;23.316;2022-11-11T11:22:09;9.95;;;7.75;;
9773;SDS011;4926;42.670;23.316;2022-11-11T11:24:38;9.05;;;7.00;;
9773;SDS011;4926;42.670;23.316;2022-11-11T11:27:07;8.90;;;6.90;;
9773;SDS011;4926;42.670;23.316;2022-11-11T11:29:38;10.52;;;7.70;;
9773;SDS011;4926;42.670;23.316;2022-11-11T11:32:10;8.43;;;6.80;;
9773;SDS011;4926;42.670;23.316;2022-11-11T11:34:48;7.45;;;6.13;;
9773;SDS011;4926;42.670;23.316;2022-11-11T11:37:16;8.05;;;6.35;;
9773;SDS011;4926;42.670;23.316;2022-11-11T11:39:45;8.95;;;5.97;;
9773;SDS011;4926;42.670;23.316;2022-11-11T11:45:14;7.60;;;6.40;;
9773;SDS011;4926;42.670;23.316;2022-11-11T11:47:50;6.53;;;5.40;;
9773;SDS011;4926;42.670;23.316;2022-11-11T11:50:33;10.02;;;5.68;;
9773;SDS011;4926;42.670;23.316;2022-11-11T11:53:10;6.68;;;5.40;;
9773;SDS011;4926;42.670;23.316;2022-11-11T11:55:50;7.53;;;5.80;;
9773;SDS011;4926;42.670;23.316;2022-11-11T11:58:24;10.63;;;6.18;;
9773;SDS011;4926;42.670;23.316;2022-11-11T12:01:06;9.52;;;6.20;;
9773;SDS011;4926;42.670;23.316;2022-11-11T12:03:51;8.25;;;6.90;;
9773;SDS011;4926;42.670;23.316;2022-11-11T12:06:39;8.88;;;6.15;;
9773;SDS011;4926;42.670;23.316;2022-11-11T12:09:20;7.90;;;6.47;;
9773;SDS011;4926;42.670;23.316;2022-11-11T12:11:57;8.68;;;6.57;;
9773;SDS011;4926;42.670;23.316;2022-11-11T12:14:39;6.88;;;5.70;;
9773;SDS011;4926;42.670;23.316;2022-11-11T12:17:18;8.80;;;6.03;;
9773;SDS011;4926;42.670;23.316;2022-11-11T12:20:09;7.18;;;5.50;;
9773;SDS011;4926;42.670;23.316;2022-11-11T12:22:49;8.48;;;5.95;;
9773;SDS011;4926;42.670;23.316;2022-11-11T12:25:38;9.35;;;6.53;;
9773;SDS011;4926;42.670;23.316;2022-11-11T12:28:18;11.70;;;6.65;;
9773;SDS011;4926;42.670;23.316;2022-11-11T12:31:03;11.40;;;7.45;;
9773;SDS011;4926;42.670;23.316;2022-11-11T12:34:00;6.45;;;5.53;;
9773;SDS011;4926;42.670;23.316;2022-11-11T12:36:43;7.50;;;6.65;;
9773;SDS011;4926;42.670;23.316;2022-11-11T12:39:33;9.77;;;5.63;;
9773;SDS011;4926;42.670;23.316;2022-11-11T12:42:20;7.90;;;6.15;;
9773;SDS011;4926;42.670;23.316;2022-11-11T12:44:59;8.38;;;5.72;;
9773;SDS011;4926;42.670;23.316;2022-11-11T12:47:35;9.13;;;6.40;;
9773;SDS011;4926;42.670;23.316;2022-11-11T12:50:11;7.05;;;5.90;;
9773;SDS011;4926;42.670;23.316;2022-11-11T12:52:48;8.27;;;6.53;;
9773;SDS011;4926;42.670;23.316;2022-11-11T12:55:33;10.43;;;6.88;;
9773;SDS011;4926;42.670;23.316;2022-11-11T12:58:13;9.73;;;6.32;;
9773;SDS011;4926;42.670;23.316;2022-11-11T13:00:52;7.28;;;5.75;;
9773;SDS011;4926;42.670;23.316;2022-11-11T13:03:33;8.38;;;6.32;;
9773;SDS011;4926;42.670;23.316;2022-11-11T13:06:17;7.30;;;6.28;;
9773;SDS011;4926;42.670;23.316;2022-11-11T13:09:02;7.30;;;6.05;;
9773;SDS011;4926;42.670;23.316;2022-11-11T13:11:45;9.60;;;6.55;;
9773;SDS011;4926;42.670;23.316;2022-11-11T13:14:29;10.60;;;5.80;;
9773;SDS011;4926;42.670;23.316;2022-11-11T13:17:03;6.82;;;5.15;;
9773;SDS011;4926;42.670;23.316;2022-11-11T13:19:37;8.60;;;5.53;;
9773;SDS011;4926;42.670;23.316;2022-11-11T13:22:11;8.18;;;6.50;;
9773;SDS011;4926;42.670;23.316;2022-11-11T13:24:45;7.05;;;5.93;;
9773;SDS011;4926;42.670;23.316;2022-11-11T13:27:14;8.05;;;6.20;;
9773;SDS011;4926;42.670;23.316;2022-11-11T13:29:51;9.35;;;6.40;;
9773;SDS011;4926;42.670;23.316;2022-11-11T13:32:47;7.70;;;5.95;;
9773;SDS011;4926;42.670;23.316;2022-11-11T13:35:20;7.55;;;5.80;;
9773;SDS011;4926;42.670;23.316;2022-11-11T13:37:51;7.50;;;5.75;;
9773;SDS011;4926;42.670;23.316;2022-11-11T13:40:25;9.18;;;6.45;;
9773;SDS011;4926;42.670;23.316;2022-11-11T13:43:04;8.10;;;6.15;;
9773;SDS011;4926;42.670;23.316;2022-11-11T13:45:40;7.80;;;6.57;;
9773;SDS011;4926;42.670;23.316;2022-11-11T13:48:15;9.50;;;6.53;;
9773;SDS011;4926;42.670;23.316;2022-11-11T13:50:46;10.10;;;6.75;;
9773;SDS011;4926;42.670;23.316;2022-11-11T13:53:13;14.27;;;7.15;;
9773;SDS011;4926;42.670;23.316;2022-11-11T13:55:50;9.80;;;6.95;;
9773;SDS011;4926;42.670;23.316;2022-11-11T13:58:22;8.88;;;6.90;;
9773;SDS011;4926;42.670;23.316;2022-11-11T14:00:56;9.88;;;6.75;;
9773;SDS011;4926;42.670;23.316;2022-11-11T14:03:32;8.32;;;6.30;;
9773;SDS011;4926;42.670;23.316;2022-11-11T14:09:02;7.65;;;5.82;;
9773;SDS011;4926;42.670;23.316;2022-11-11T14:11:30;11.95;;;6.80;;
9773;SDS011;4926;42.670;23.316;2022-11-11T14:17:04;10.00;;;6.78;;
9773;SDS011;4926;42.670;23.316;2022-11-11T14:19:43;9.80;;;7.38;;
9773;SDS011;4926;42.670;23.316;2022-11-11T14:22:27;10.02;;;6.95;;
9773;SDS011;4926;42.670;23.316;2022-11-11T14:25:17;8.85;;;6.68;;
9773;SDS011;4926;42.670;23.316;2022-11-11T14:27:50;14.63;;;7.30;;
9773;SDS011;4926;42.670;23.316;2022-11-11T14:30:28;12.63;;;7.80;;
9773;SDS011;4926;42.670;23.316;2022-11-11T14:33:04;11.38;;;7.10;;
9773;SDS011;4926;42.670;23.316;2022-11-11T14:35:42;10.93;;;7.35;;
9773;SDS011;4926;42.670;23.316;2022-11-11T14:38:19;13.73;;;8.90;;
9773;SDS011;4926;42.670;23.316;2022-11-11T14:40:56;11.70;;;8.52;;
9773;SDS011;4926;42.670;23.316;2022-11-11T14:43:33;12.25;;;8.85;;
9773;SDS011;4926;42.670;23.316;2022-11-11T14:46:03;14.70;;;9.60;;
9773;SDS011;4926;42.670;23.316;2022-11-11T14:51:38;13.40;;;7.95;;
9773;SDS011;4926;42.670;23.316;2022-11-11T14:57:22;10.80;;;8.32;;
9773;SDS011;4926;42.670;23.316;2022-11-11T14:59:51;12.07;;;8.57;;
9773;SDS011;4926;42.670;23.316;2022-11-11T15:02:24;14.77;;;8.65;;
9773;SDS011;4926;42.670;23.316;2022-11-11T15:05:00;12.70;;;9.13;;
9773;SDS011;4926;42.670;23.316;2022-11-11T15:10:30;14.25;;;9.80;;
9773;SDS011;4926;42.670;23.316;2022-11-11T15:13:11;14.88;;;10.68;;
9773;SDS011;4926;42.670;23.316;2022-11-11T15:15:48;14.10;;;9.70;;
9773;SDS011;4926;42.670;23.316;2022-11-11T15:18:38;12.98;;;10.35;;
9773;SDS011;4926;42.670;23.316;2022-11-11T15:21:29;17.45;;;13.18;;
9773;SDS011;4926;42.670;23.316;2022-11-11T15:24:06;14.50;;;10.48;;
9773;SDS011;4926;42.670;23.316;2022-11-11T15:26:44;15.05;;;10.40;;
9773;SDS011;4926;42.670;23.316;2022-11-11T15:29:24;16.20;;;11.45;;
9773;SDS011;4926;42.670;23.316;2022-11-11T15:32:28;15.20;;;10.93;;